createdAt,value
2018-11-10T00:00:38.323Z,23.83
2018-11-10T00:03:07.221Z,22.67
2018-11-10T00:05:35.550Z,24.37
2018-11-10T00:08:03.935Z,22.07
2018-11-10T00:10:32.235Z,22.13
2018-11-10T00:13:07.014Z,23.13
2018-11-10T00:15:35.321Z,22.30
2018-11-10T00:18:03.650Z,23.03
2018-11-10T00:20:31.962Z,21.77
2018-11-10T00:23:00.287Z,20.40
2018-11-10T00:25:28.597Z,21.57
2018-11-10T00:27:56.931Z,21.20
2018-11-10T00:30:25.296Z,24.80
2018-11-10T00:32:53.697Z,21.80
2018-11-10T00:35:21.999Z,23.17
2018-11-10T00:37:50.348Z,20.20
2018-11-10T00:40:18.674Z,20.63
2018-11-10T00:42:47.013Z,20.37
2018-11-10T00:45:15.331Z,20.83
2018-11-10T00:47:43.695Z,21.70
2018-11-10T00:50:12.023Z,21.80
2018-11-10T00:52:40.370Z,21.57
2018-11-10T00:55:09.045Z,19.70
2018-11-10T00:57:37.394Z,21.87
2018-11-10T01:00:05.912Z,22.27
2018-11-10T01:02:34.214Z,19.93
2018-11-10T01:05:02.519Z,22.40
2018-11-10T01:07:30.900Z,20.07
2018-11-10T01:09:59.241Z,23.33
2018-11-10T01:12:27.595Z,18.50
2018-11-10T01:14:55.951Z,20.60
2018-11-10T01:17:24.300Z,21.37
2018-11-10T01:19:52.662Z,20.43
2018-11-10T01:22:21.023Z,20.17
2018-11-10T01:24:49.431Z,19.97
2018-11-10T01:27:17.726Z,20.23
2018-11-10T01:29:46.082Z,19.53
2018-11-10T01:32:14.423Z,18.07
2018-11-10T01:34:42.886Z,19.87
2018-11-10T01:37:11.222Z,18.07
2018-11-10T01:39:39.571Z,17.53
2018-11-10T01:42:07.923Z,18.20
2018-11-10T01:47:09.989Z,15.03
2018-11-10T01:49:38.329Z,17.77
2018-11-10T01:52:06.651Z,15.27
2018-11-10T01:54:35.014Z,16.27
2018-11-10T01:57:03.336Z,15.67
2018-11-10T01:59:31.684Z,15.17
2018-11-10T02:01:59.988Z,17.63
2018-11-10T02:04:28.354Z,15.70
2018-11-10T02:06:56.762Z,17.73
2018-11-10T02:09:25.057Z,15.80
2018-11-10T02:11:53.354Z,16.07
2018-11-10T02:14:21.708Z,16.03
2018-11-10T02:16:50.068Z,17.67
2018-11-10T02:19:18.395Z,16.07
2018-11-10T02:21:46.751Z,15.87
2018-11-10T02:24:15.111Z,18.80
2018-11-10T02:26:43.524Z,17.30
2018-11-10T02:29:11.859Z,16.40
2018-11-10T02:31:40.184Z,15.93
2018-11-10T02:34:08.545Z,18.23
2018-11-10T02:36:36.923Z,17.07
2018-11-10T02:39:07.239Z,16.33
2018-11-10T02:41:35.772Z,17.13
2018-11-10T02:44:04.148Z,17.20
2018-11-10T02:46:32.486Z,16.87
2018-11-10T02:49:00.799Z,17.63
2018-11-10T02:51:29.349Z,18.60
2018-11-10T02:53:57.678Z,17.77
2018-11-10T02:56:26.091Z,20.10
2018-11-10T02:58:54.396Z,18.57
2018-11-10T03:01:22.683Z,17.50
2018-11-10T03:03:50.983Z,19.47
2018-11-10T03:06:19.284Z,18.60
2018-11-10T03:08:47.682Z,19.50
2018-11-10T03:11:16.024Z,19.20
2018-11-10T03:13:44.319Z,22.90
2018-11-10T03:16:12.643Z,19.17
2018-11-10T03:18:40.997Z,21.00
2018-11-10T03:21:09.325Z,19.23
2018-11-10T03:23:37.639Z,21.50
2018-11-10T03:26:05.967Z,20.33
2018-11-10T03:28:34.266Z,20.33
2018-11-10T03:31:02.597Z,19.53
2018-11-10T03:33:30.892Z,21.37
2018-11-10T03:35:59.242Z,21.87
2018-11-10T03:38:27.534Z,20.83
2018-11-10T03:40:55.856Z,20.17
2018-11-10T03:43:24.165Z,19.10
2018-11-10T03:45:52.490Z,20.47
2018-11-10T03:48:20.787Z,19.00
2018-11-10T03:50:49.161Z,19.57
2018-11-10T03:53:17.469Z,17.33
2018-11-10T03:55:45.859Z,19.37
2018-11-10T03:58:14.241Z,18.50
2018-11-10T04:00:42.536Z,17.67
2018-11-10T04:03:10.815Z,18.80
2018-11-10T04:05:39.107Z,17.80
2018-11-10T04:08:07.403Z,20.03
2018-11-10T04:10:35.710Z,18.33
2018-11-10T04:13:04.003Z,17.83
2018-11-10T04:15:32.382Z,18.63
2018-11-10T04:18:00.684Z,18.57
2018-11-10T04:20:29.009Z,16.90
2018-11-10T04:22:57.324Z,18.83
2018-11-10T04:25:25.635Z,17.00
2018-11-10T04:27:53.944Z,17.07
2018-11-10T04:30:22.262Z,17.10
2018-11-10T04:32:50.585Z,16.57
2018-11-10T04:35:18.909Z,16.60
2018-11-10T04:37:47.203Z,17.40
2018-11-10T04:40:15.513Z,16.80
2018-11-10T04:42:43.838Z,16.80
2018-11-10T04:45:12.702Z,14.40
2018-11-10T04:47:41.055Z,16.23
2018-11-10T04:50:10.509Z,15.73
2018-11-10T04:52:38.936Z,13.63
2018-11-10T04:55:08.008Z,16.77
2018-11-10T04:57:36.302Z,16.17
2018-11-10T05:00:05.963Z,14.53
2018-11-10T05:02:34.259Z,15.63
2018-11-10T05:05:02.602Z,15.70
2018-11-10T05:07:30.911Z,14.67
2018-11-10T05:09:59.207Z,17.20
2018-11-10T05:12:27.527Z,15.43
2018-11-10T05:14:55.826Z,16.17
2018-11-10T05:17:24.145Z,17.67
2018-11-10T05:19:52.467Z,18.73
2018-11-10T05:22:20.781Z,16.00
2018-11-10T05:24:49.079Z,16.23
2018-11-10T05:27:17.394Z,14.83
2018-11-10T05:29:45.694Z,16.60
2018-11-10T05:32:14.033Z,15.30
2018-11-10T05:34:42.356Z,15.53
2018-11-10T05:37:10.809Z,15.60
2018-11-10T05:39:39.194Z,15.37
2018-11-10T05:42:07.523Z,15.30
2018-11-10T05:44:35.843Z,14.00
2018-11-10T05:47:04.215Z,15.00
2018-11-10T05:49:32.533Z,16.33
2018-11-10T05:52:00.876Z,15.00
2018-11-10T05:54:29.218Z,16.50
2018-11-10T05:56:57.551Z,16.30
2018-11-10T05:59:26.083Z,15.73
2018-11-10T06:01:54.555Z,14.93
2018-11-10T06:04:22.955Z,14.73
2018-11-10T06:06:51.619Z,15.03
2018-11-10T06:09:20.160Z,14.90
2018-11-10T06:11:48.488Z,13.03
2018-11-10T06:14:16.824Z,13.07
2018-11-10T06:16:45.139Z,12.93
2018-11-10T06:19:13.449Z,15.20
2018-11-10T06:21:41.804Z,14.80
2018-11-10T06:24:10.103Z,15.03
2018-11-10T06:26:38.551Z,14.13
2018-11-10T06:29:06.859Z,13.63
2018-11-10T06:31:35.186Z,14.50
2018-11-10T06:34:03.547Z,16.00
2018-11-10T06:36:31.858Z,16.07
2018-11-10T06:39:00.167Z,15.53
2018-11-10T06:41:28.594Z,15.17
2018-11-10T06:43:56.890Z,13.80
2018-11-10T06:46:25.380Z,14.60
2018-11-10T06:48:53.721Z,14.77
2018-11-10T06:51:22.058Z,15.17
2018-11-10T06:53:50.355Z,15.90
2018-11-10T06:56:18.675Z,14.83
2018-11-10T06:58:47.020Z,15.13
2018-11-10T07:01:15.386Z,14.23
2018-11-10T07:03:43.812Z,13.83
2018-11-10T07:06:12.316Z,18.07
2018-11-10T07:08:40.643Z,15.40
2018-11-10T07:11:08.962Z,17.33
2018-11-10T07:13:37.281Z,14.93
2018-11-10T07:16:05.676Z,15.37
2018-11-10T07:18:34.030Z,16.43
2018-11-10T07:21:02.404Z,17.10
2018-11-10T07:23:30.723Z,13.20
2018-11-10T07:25:59.137Z,14.23
2018-11-10T07:28:27.983Z,17.33
2018-11-10T07:30:56.503Z,14.00
2018-11-10T07:33:25.402Z,16.47
2018-11-10T07:35:53.955Z,14.57
2018-11-10T07:38:22.372Z,14.90
2018-11-10T07:40:50.812Z,16.63
2018-11-10T07:43:19.434Z,14.93
2018-11-10T07:45:47.932Z,15.03
2018-11-10T07:48:16.228Z,13.77
2018-11-10T07:50:44.559Z,15.27
2018-11-10T07:53:12.860Z,14.13
2018-11-10T07:55:41.661Z,15.43
2018-11-10T07:58:09.975Z,16.57
2018-11-10T08:00:38.278Z,17.33
2018-11-10T08:03:06.574Z,15.73
2018-11-10T08:05:34.894Z,16.13
2018-11-10T08:08:03.333Z,15.93
2018-11-10T08:10:31.674Z,16.63
2018-11-10T08:12:59.987Z,17.03
2018-11-10T08:15:28.290Z,15.50
2018-11-10T08:17:56.687Z,14.87
2018-11-10T08:20:25.010Z,16.77
2018-11-10T08:22:54.187Z,16.40
2018-11-10T08:25:23.023Z,16.13
2018-11-10T08:27:52.908Z,16.70
2018-11-10T08:30:22.656Z,16.47
2018-11-10T08:32:52.646Z,17.40
2018-11-10T08:35:22.303Z,16.90
2018-11-10T08:37:52.122Z,18.47
2018-11-10T08:40:21.062Z,16.90
2018-11-10T08:42:49.449Z,18.60
2018-11-10T08:45:17.977Z,16.93
2018-11-10T08:47:46.133Z,17.50
2018-11-10T08:50:15.507Z,16.53
2018-11-10T08:52:43.818Z,20.10
2018-11-10T08:55:12.739Z,19.03
2018-11-10T08:57:41.360Z,19.67
2018-11-10T09:00:10.318Z,20.83
2018-11-10T09:02:38.511Z,18.77
2018-11-10T09:05:07.634Z,16.93
2018-11-10T09:07:36.088Z,18.13
2018-11-10T09:10:04.515Z,17.20
2018-11-10T09:12:32.949Z,19.10
2018-11-10T09:15:01.337Z,19.57
2018-11-10T09:17:29.776Z,19.00
2018-11-10T09:19:58.112Z,19.60
2018-11-10T09:22:26.439Z,19.47
2018-11-10T09:24:54.758Z,19.20
2018-11-10T09:27:23.132Z,18.07
2018-11-10T09:29:51.485Z,16.93
2018-11-10T09:32:19.792Z,17.77
2018-11-10T09:34:48.153Z,18.20
2018-11-10T09:37:16.524Z,18.53
2018-11-10T09:39:44.918Z,16.10
2018-11-10T09:42:13.413Z,16.97
2018-11-10T09:44:41.733Z,19.13
2018-11-10T09:47:09.982Z,17.47
2018-11-10T09:49:38.294Z,18.77
2018-11-10T09:52:06.616Z,16.37
2018-11-10T09:54:34.914Z,17.10
2018-11-10T09:57:03.232Z,17.33
2018-11-10T09:59:31.568Z,16.53
2018-11-10T10:02:00.299Z,18.07
2018-11-10T10:04:28.278Z,15.60
2018-11-10T10:06:56.678Z,16.50
2018-11-10T10:09:25.081Z,16.13
2018-11-10T10:11:53.458Z,16.23
2018-11-10T10:14:21.767Z,16.07
2018-11-10T10:16:50.131Z,15.80
2018-11-10T10:19:18.417Z,15.30
2018-11-10T10:21:46.840Z,16.77
2018-11-10T10:24:15.087Z,14.50
2018-11-10T10:26:43.403Z,15.57
2018-11-10T10:29:11.753Z,14.93
2018-11-10T10:31:40.004Z,14.67
2018-11-10T10:34:08.445Z,14.70
2018-11-10T10:36:36.663Z,14.73
2018-11-10T10:39:07.526Z,15.07
2018-11-10T10:41:36.222Z,15.73
2018-11-10T10:44:05.096Z,18.10
2018-11-10T10:46:33.506Z,16.83
2018-11-10T10:49:01.984Z,15.13
2018-11-10T10:51:30.343Z,16.80
2018-11-10T10:53:58.643Z,18.30
2018-11-10T10:56:26.984Z,13.63
2018-11-10T10:58:55.663Z,17.80
2018-11-10T11:01:29.366Z,15.40
2018-11-10T11:04:04.793Z,14.93
2018-11-10T11:06:33.358Z,17.00
2018-11-10T11:09:02.529Z,16.03
2018-11-10T11:11:31.015Z,17.80
2018-11-10T11:14:05.696Z,15.87
2018-11-10T11:16:34.175Z,16.27
2018-11-10T11:19:02.492Z,14.97
2018-11-10T11:21:30.919Z,16.07
2018-11-10T11:23:59.372Z,15.87
2018-11-10T11:26:27.892Z,17.23
2018-11-10T11:28:56.329Z,16.33
2018-11-10T11:31:24.672Z,18.37
2018-11-10T11:33:53.733Z,16.93
2018-11-10T11:36:21.887Z,17.40
2018-11-10T11:38:56.417Z,16.00
2018-11-10T11:41:25.137Z,15.37
2018-11-10T11:43:53.216Z,14.80
2018-11-10T11:46:21.398Z,15.60
2018-11-10T11:48:49.785Z,16.00
2018-11-10T11:51:17.956Z,16.43
2018-11-10T11:53:46.327Z,15.90
2018-11-10T11:56:14.594Z,20.67
2018-11-10T11:58:42.727Z,16.90
2018-11-10T12:01:11.583Z,18.20
2018-11-10T12:03:39.722Z,17.20
2018-11-10T12:06:08.190Z,17.90
2018-11-10T12:08:36.458Z,17.70
2018-11-10T12:11:05.051Z,17.80
2018-11-10T12:13:33.378Z,19.23
2018-11-10T12:16:01.775Z,18.53
2018-11-10T12:18:30.090Z,18.00
2018-11-10T12:20:58.479Z,21.10
2018-11-10T12:23:26.744Z,20.93
2018-11-10T12:25:55.051Z,20.07
2018-11-10T12:28:23.347Z,20.57
2018-11-10T12:30:51.681Z,20.97
2018-11-10T12:33:19.999Z,22.13
2018-11-10T12:35:48.472Z,22.20
2018-11-10T12:38:16.787Z,23.03
2018-11-10T12:40:45.087Z,22.80
2018-11-10T12:43:13.430Z,20.67
2018-11-10T12:45:41.711Z,20.37
2018-11-10T12:48:10.015Z,19.57
2018-11-10T12:50:38.286Z,19.50
2018-11-10T12:53:06.586Z,19.83
2018-11-10T12:55:36.110Z,20.47
2018-11-10T12:58:04.654Z,20.27
2018-11-10T13:00:32.973Z,20.63
2018-11-10T13:03:01.301Z,20.37
2018-11-10T13:05:29.614Z,20.43
2018-11-10T13:07:58.018Z,19.27
2018-11-10T13:10:26.279Z,20.73
2018-11-10T13:12:54.670Z,20.17
2018-11-10T13:15:23.007Z,19.13
2018-11-10T13:17:51.357Z,16.07
2018-11-10T13:20:19.673Z,18.37
2018-11-10T13:22:48.009Z,17.97
2018-11-10T13:25:16.318Z,15.70
2018-11-10T13:27:45.442Z,18.87
2018-11-10T13:30:14.874Z,18.00
2018-11-10T13:32:43.366Z,17.70
2018-11-10T13:35:12.001Z,17.37
2018-11-10T13:37:40.416Z,15.83
2018-11-10T13:40:09.149Z,15.37
2018-11-10T13:42:37.498Z,18.70
2018-11-10T13:45:07.495Z,15.90
2018-11-10T13:47:35.823Z,14.87
2018-11-10T13:50:04.547Z,16.57
2018-11-10T13:52:34.591Z,16.90
2018-11-10T13:55:02.587Z,15.93
2018-11-10T13:57:30.880Z,15.90
2018-11-10T13:59:59.284Z,16.93
2018-11-10T14:02:27.821Z,16.67
2018-11-10T14:04:56.131Z,15.63
2018-11-10T14:07:24.452Z,16.97
2018-11-10T14:09:52.762Z,16.40
2018-11-10T14:12:21.088Z,16.97
2018-11-10T14:14:49.402Z,14.60
2018-11-10T14:17:17.698Z,17.33
2018-11-10T14:19:46.023Z,15.63
2018-11-10T14:22:14.359Z,16.30
2018-11-10T14:24:42.675Z,18.23
2018-11-10T14:27:10.966Z,17.83
2018-11-10T14:29:39.418Z,15.40
2018-11-10T14:32:07.718Z,15.53
2018-11-10T14:34:36.080Z,15.33
2018-11-10T14:37:04.358Z,15.17
2018-11-10T14:39:32.675Z,14.33
2018-11-10T14:42:00.977Z,16.13
2018-11-10T14:44:29.284Z,16.87
2018-11-10T14:46:57.579Z,15.87
2018-11-10T14:49:32.241Z,17.37
2018-11-10T14:52:00.531Z,15.60
2018-11-10T14:54:28.858Z,16.93
2018-11-10T14:56:57.127Z,15.90
2018-11-10T14:59:25.453Z,14.47
2018-11-10T15:01:53.754Z,15.83
2018-11-10T15:04:22.272Z,14.40
2018-11-10T15:06:50.566Z,16.27
2018-11-10T15:09:18.888Z,15.40
2018-11-10T15:11:47.345Z,16.27
2018-11-10T15:14:15.501Z,15.87
2018-11-10T15:16:43.803Z,15.30
2018-11-10T15:19:12.111Z,15.47
2018-11-10T15:21:40.416Z,15.00
2018-11-10T15:24:08.802Z,15.10
2018-11-10T15:26:37.101Z,15.83
2018-11-10T15:29:05.703Z,13.90
2018-11-10T15:31:34.178Z,14.10
2018-11-10T15:34:02.660Z,13.53
2018-11-10T15:36:30.902Z,16.17
2018-11-10T15:38:59.305Z,14.53
2018-11-10T15:41:28.023Z,13.60
2018-11-10T15:43:56.386Z,13.73
2018-11-10T15:46:24.668Z,12.80
2018-11-10T15:48:53.004Z,13.00
2018-11-10T15:51:21.325Z,14.13
2018-11-10T15:53:49.634Z,14.20
2018-11-10T15:56:17.978Z,13.43
2018-11-10T15:58:46.278Z,14.33
2018-11-10T16:01:14.591Z,13.03
2018-11-10T16:03:42.890Z,12.57
2018-11-10T16:06:11.213Z,12.30
2018-11-10T16:08:54.855Z,11.47
2018-11-10T16:11:38.897Z,13.33
2018-11-10T16:14:20.612Z,12.67
2018-11-10T16:16:48.728Z,11.70
2018-11-10T16:19:17.143Z,11.53
2018-11-10T16:21:45.311Z,13.60
2018-11-10T16:24:13.519Z,11.70
2018-11-10T16:26:41.658Z,12.20
2018-11-10T16:29:09.798Z,12.10
2018-11-10T16:31:37.931Z,12.00
2018-11-10T16:34:06.085Z,11.70
2018-11-10T16:36:34.310Z,10.07
2018-11-10T16:39:02.447Z,11.77
2018-11-10T16:41:31.006Z,11.97
2018-11-10T16:43:59.142Z,9.90
2018-11-10T16:46:27.324Z,13.03
2018-11-10T16:48:55.943Z,11.90
2018-11-10T16:51:24.118Z,10.60
2018-11-10T16:53:52.818Z,10.77
2018-11-10T16:56:21.249Z,11.33
2018-11-10T16:58:49.598Z,12.33
2018-11-10T17:01:17.935Z,9.67
2018-11-10T17:03:46.224Z,9.90
2018-11-10T17:06:14.527Z,11.57
2018-11-10T17:08:42.957Z,12.03
2018-11-10T17:11:11.226Z,10.37
2018-11-10T17:13:39.567Z,10.60
2018-11-10T17:16:07.851Z,11.27
2018-11-10T17:18:36.120Z,10.40
2018-11-10T17:21:04.560Z,10.70
2018-11-10T17:23:37.074Z,11.70
2018-11-10T17:26:12.479Z,10.73
2018-11-10T17:28:40.672Z,10.93
2018-11-10T17:31:08.840Z,11.60
2018-11-10T17:33:37.003Z,10.20
2018-11-10T17:36:05.470Z,10.27
2018-11-10T17:38:33.914Z,9.83
2018-11-10T17:41:02.088Z,10.77
2018-11-10T17:43:30.455Z,10.37
2018-11-10T17:48:35.659Z,8.50
2018-11-10T17:51:03.826Z,9.00
2018-11-10T17:53:31.964Z,11.80
2018-11-10T17:56:00.342Z,12.00
2018-11-10T17:58:28.515Z,10.17
2018-11-10T18:00:56.647Z,9.37
2018-11-10T18:03:24.775Z,9.97
2018-11-10T18:05:52.934Z,10.33
2018-11-10T18:08:21.110Z,10.07
2018-11-10T18:10:49.245Z,8.93
2018-11-10T18:13:17.654Z,8.70
2018-11-10T18:15:46.058Z,10.07
2018-11-10T18:18:14.203Z,9.23
2018-11-10T18:20:42.658Z,11.50
2018-11-10T18:23:11.154Z,9.50
2018-11-10T18:25:39.348Z,9.57
2018-11-10T18:28:07.486Z,10.67
2018-11-10T18:30:35.610Z,9.50
2018-11-10T18:33:03.771Z,10.27
2018-11-10T18:35:31.936Z,11.00
2018-11-10T18:38:00.087Z,11.37
2018-11-10T18:40:28.236Z,9.17
2018-11-10T18:42:56.462Z,10.07
2018-11-10T18:45:24.606Z,13.47
2018-11-10T18:47:59.544Z,10.43
2018-11-10T18:50:27.909Z,12.30
2018-11-10T18:52:56.242Z,8.33
2018-11-10T18:55:24.546Z,9.43
2018-11-10T18:57:52.943Z,9.60
2018-11-10T19:00:21.167Z,8.70
2018-11-10T19:02:49.481Z,11.13
2018-11-10T19:05:18.118Z,9.77
2018-11-10T19:07:46.607Z,9.87
2018-11-10T19:10:16.315Z,10.27
2018-11-10T19:12:44.774Z,9.20
2018-11-10T19:15:16.467Z,10.47
2018-11-10T19:17:44.929Z,8.57
2018-11-10T19:20:14.036Z,8.00
2018-11-10T19:22:42.386Z,9.63
2018-11-10T19:25:11.844Z,9.27
2018-11-10T19:27:40.207Z,8.17
2018-11-10T19:30:12.196Z,9.93
2018-11-10T19:32:40.670Z,9.50
2018-11-10T19:35:09.032Z,9.37
2018-11-10T19:37:37.359Z,10.00
2018-11-10T19:40:06.707Z,8.00
2018-11-10T19:42:35.033Z,9.13
2018-11-10T19:45:03.375Z,9.27
2018-11-10T19:47:31.677Z,8.67
2018-11-10T19:50:00.173Z,9.17
2018-11-10T19:52:28.477Z,9.13
2018-11-10T19:54:56.800Z,8.43
2018-11-10T19:57:25.171Z,7.70
2018-11-10T19:59:53.516Z,7.93
2018-11-10T20:02:21.872Z,11.90
2018-11-10T20:04:50.180Z,9.00
2018-11-10T20:07:18.612Z,8.37
2018-11-10T20:09:46.895Z,11.23
2018-11-10T20:12:15.303Z,8.60
2018-11-10T20:14:43.631Z,8.17
2018-11-10T20:17:11.956Z,8.07
2018-11-10T20:19:40.438Z,9.37
2018-11-10T20:22:08.810Z,11.03
2018-11-10T20:24:37.154Z,9.67
2018-11-10T20:27:05.503Z,10.93
2018-11-10T20:29:33.831Z,9.70
2018-11-10T20:32:02.144Z,11.80
2018-11-10T20:34:30.475Z,10.93
2018-11-10T20:36:58.849Z,11.03
2018-11-10T20:39:27.159Z,11.33
2018-11-10T20:41:55.443Z,9.37
2018-11-10T20:44:23.749Z,10.10
2018-11-10T20:46:52.058Z,11.60
2018-11-10T20:49:20.395Z,9.27
2018-11-10T20:51:49.026Z,10.00
2018-11-10T20:54:17.665Z,10.67
2018-11-10T20:56:46.379Z,9.47
2018-11-10T20:59:15.050Z,9.00
2018-11-10T21:01:43.652Z,9.97
2018-11-10T21:04:11.955Z,9.43
2018-11-10T21:06:40.412Z,10.97
2018-11-10T21:09:10.411Z,10.97
2018-11-10T21:11:38.715Z,9.33
2018-11-10T21:14:07.236Z,9.70
2018-11-10T21:16:35.748Z,10.00
2018-11-10T21:19:04.209Z,9.40
2018-11-10T21:21:32.588Z,8.73
2018-11-10T21:24:00.877Z,9.60
2018-11-10T21:26:29.148Z,10.03
2018-11-10T21:28:57.699Z,9.40
2018-11-10T21:31:26.051Z,8.87
2018-11-10T21:33:54.468Z,11.67
2018-11-10T21:36:22.796Z,11.07
2018-11-10T21:38:51.089Z,10.87
2018-11-10T21:41:19.394Z,10.07
2018-11-10T21:43:47.787Z,10.67
2018-11-10T21:46:15.968Z,11.37
2018-11-10T21:48:44.254Z,10.33
2018-11-10T21:51:12.571Z,10.13
2018-11-10T21:53:40.866Z,9.73
2018-11-10T21:56:09.334Z,11.40
2018-11-10T21:58:37.642Z,9.93
2018-11-10T22:01:05.984Z,9.87
2018-11-10T22:03:34.296Z,9.60
2018-11-10T22:06:02.768Z,10.33
2018-11-10T22:08:34.159Z,11.47
2018-11-10T22:11:03.550Z,10.30
2018-11-10T22:13:31.924Z,10.63
2018-11-10T22:16:00.376Z,10.90
2018-11-10T22:18:28.663Z,11.33
2018-11-10T22:20:56.943Z,9.37
2018-11-10T22:23:25.271Z,10.10
2018-11-10T22:25:53.572Z,9.80
2018-11-10T22:28:21.886Z,10.13
2018-11-10T22:30:50.278Z,9.43
2018-11-10T22:33:18.552Z,10.20
2018-11-10T22:35:46.839Z,9.07
2018-11-10T22:38:15.153Z,10.17
2018-11-10T22:40:43.439Z,9.23
2018-11-10T22:43:11.754Z,9.17
2018-11-10T22:45:40.042Z,9.97
2018-11-10T22:48:08.394Z,11.00
2018-11-10T22:50:36.639Z,10.23
2018-11-10T22:53:05.237Z,10.73
2018-11-10T22:55:33.534Z,10.00
2018-11-10T22:58:01.838Z,8.47
2018-11-10T23:00:30.119Z,9.17
2018-11-10T23:02:59.752Z,8.00
2018-11-10T23:05:28.129Z,10.00
2018-11-10T23:07:56.452Z,8.10
2018-11-10T23:10:24.750Z,7.33
2018-11-10T23:12:53.829Z,9.00
2018-11-10T23:15:22.150Z,8.30
2018-11-10T23:17:50.458Z,8.73
2018-11-10T23:20:19.613Z,7.93
2018-11-10T23:22:48.059Z,7.83
2018-11-10T23:25:17.304Z,9.07
2018-11-10T23:27:45.679Z,9.03
2018-11-10T23:30:16.089Z,8.47
2018-11-10T23:32:44.351Z,7.03
2018-11-10T23:35:12.971Z,8.33
2018-11-10T23:37:41.335Z,8.30
2018-11-10T23:40:11.703Z,7.07
2018-11-10T23:42:40.691Z,7.13
2018-11-10T23:45:09.309Z,6.10
2018-11-10T23:47:38.260Z,8.53
2018-11-10T23:50:07.723Z,8.50
2018-11-10T23:52:36.242Z,6.57
2018-11-10T23:55:04.728Z,5.87
2018-11-10T23:57:33.012Z,7.53
